• Join FlightAware (Why Join?)
  • Login
  • US Flag 
11:19AM EDT


 

Airport Tracker/Info


-or-


 

Live Flight TrackerFlight Track Log ✈ UAL4380 ✈ 18-Apr-2013 ✈ KMFE - KIAH

Flight Track Log - Related Links

Times and Time Zones

All times are in EDT time to prevent confusion due to time zone crossing. See the UAL4380 flight status page for this flight to view local times or setup timezone preferences in your user account.

Time Position Orientation Groundspeed Altitude Reporting Facility
EDT Latitude Longitude Course Direction KTS MPH feet Rate Location/Type
06:47AM 26.1567 -98.2222 24° Northeast 117 135 1,100  Level Houston Center
06:48AM 26.1922 -98.1803 47° Northeast 225 259 2,900 1,620 Climbing Houston Center
06:49AM 26.2150 -98.1708 20° North 249 287 3,300 1,560 Climbing Houston Center
06:49AM 26.2689 -98.1469 22° Northeast 288 331 4,500 1,860 Climbing Houston Center
06:50AM 26.3724 -98.1344 20° North  Level FlightAware Approximate
06:50AM 26.2944 -98.1372 19° North 297 342 5,200  Level Houston Center
06:51AM 26.4420 -98.1040 24° Northeast  Level FlightAware Approximate
06:51AM 26.3756 -98.1031 21° North 309 356 7,600  Level Houston Center
06:52AM 26.5102 -98.0699 24° Northeast  Level FlightAware Approximate
06:52AM 26.4542 -98.0692 21° North 304 350 9,300  Level Houston Center
06:53AM 26.5367 -98.0344 21° North 313 360 10,800 1,140 Climbing Houston Center
06:54AM 26.6264 -97.9967 21° North 338 389 11,700 1,020 Climbing Houston Center
06:55AM 26.7214 -97.9558 21° North 358 412 12,900 1,200 Climbing Houston Center
06:56AM 26.8253 -97.9114 21° North 368 423 14,200 1,200 Climbing Houston Center
06:57AM 26.9228 -97.8703 21° North 373 429 15,400 1,140 Climbing Houston Center
06:58AM 27.0214 -97.8275 21° North 378 435 16,600 1,140 Climbing Houston Center
06:59AM 27.1219 -97.7836 21° North 384 442 17,800 1,140 Climbing Houston Center
07:00AM 27.2061 -97.7464 21° North 389 448 19,000 1,140 Climbing Houston Center
07:01AM 27.3083 -97.7019 21° North 393 452 20,200 1,140 Climbing Houston Center
07:02AM 27.4108 -97.6592 20° North 393 452 21,400 1,140 Climbing Houston Center
07:03AM 27.5125 -97.6147 21° North 393 452 22,600 1,320 Climbing Houston Center
07:04AM 27.6311 -97.5450 28° Northeast 404 465 24,100 1,320 Climbing Houston Center
07:05AM 27.7261 -97.4786 32° Northeast 404 465 25,300 1,140 Climbing Houston Center
07:06AM 27.8214 -97.4094 33° Northeast 407 468 26,500 840 Climbing Houston Center
07:07AM 27.9192 -97.3408 32° Northeast 411 473 27,000 240 Climbing Houston Center
07:08AM 28.0208 -97.2700 32° Northeast 434 499 27,000  Level Houston Center
07:09AM 28.1314 -97.1922 32° Northeast 462 532 27,000  Level Houston Center
07:10AM 28.2444 -97.1117 32° Northeast 476 548 27,000  Level Houston Center
07:11AM 28.3578 -97.0300 32° Northeast 482 555 27,000  Level Houston Center
07:12AM 28.4742 -96.9467 32° Northeast 492 566 27,000 -360 Level Houston Center
07:13AM 28.5897 -96.8631 32° Northeast 492 566 26,300 -840 Descending Houston Center
07:14AM 28.7061 -96.8203 18° North 454 522 25,400 -1,260 Descending Houston Center
07:15AM 28.8242 -96.8353 354° North 427 491 23,800 -1,620 Descending Houston Center
07:16AM 28.9394 -96.8447 356° North 420 483 22,200 -1,800 Descending Houston Center
07:17AM 29.0458 -96.7942 23° Northeast 426 490 20,200 -2,040 Descending Houston Center
07:18AM 29.1242 -96.6953 48° Northeast 426 490 18,200 -2,280 Descending Houston Center
07:19AM 29.2164 -96.5822 47° Northeast 411 473 15,600 -2,340 Descending Houston Center
07:20AM 29.2881 -96.4906 48° Northeast 396 456 13,600 -2,040 Descending Houston Center
07:21AM 29.3522 -96.4111 47° Northeast 371 427 11,800 -2,040 Descending Houston Center
07:21AM 29.3922 -96.3636 46° Northeast 371 427 10,700 -1,620 Descending Houston Center
07:22AM 29.4261 -96.3186 49° Northeast 366 421 10,000 -720 Descending Houston Center
07:22AM 29.4606 -96.2769 46° Northeast 364 419 10,000 -120 Level Houston Center
07:23AM 29.4936 -96.2328 49° Northeast 364 419 9,900  Descending Houston Center
07:23AM 29.5267 -96.1903 48° Northeast 360 414 10,000 60 Climbing Houston Center
07:24AM 29.5617 -96.1481 46° Northeast 363 418 10,000  Level Houston Center
07:24AM 29.5994 -96.1103 41° Northeast 364 419 10,000 -120 Level Houston Center
07:25AM 29.6372 -96.0692 43° Northeast 366 421 9,900 -420 Descending Houston Center
07:25AM 29.6706 -96.0350 42° Northeast 348 400 9,600 -1,020 Descending Houston Center
07:26AM 29.7003 -96.0003 45° Northeast 335 386 8,900 -1,500 Descending Houston Center
07:26AM 29.7336 -95.9628 44° Northeast 322 371 8,100 -1,500 Descending Houston Center
07:27AM 29.7653 -95.9303 42° Northeast 320 368 7,400 -1,380 Descending Houston Center
07:27AM 29.7989 -95.8928 44° Northeast 320 368 6,700 -1,380 Descending Houston Center
07:28AM 29.8300 -95.8589 43° Northeast 322 371 6,000 -1,620 Descending Houston Center
07:28AM 29.8642 -95.8228 43° Northeast 317 365 5,100 -1,380 Descending Houston Center
07:29AM 29.8939 -95.7914 42° Northeast 314 361 4,600 -1,140 Descending Houston Center
07:29AM 29.9275 -95.7550 43° Northeast 282 325 4,000 -600 Descending Houston Center
07:30AM 29.9497 -95.7311 43° Northeast 283 326 4,000  Level Houston Center
07:30AM 29.9789 -95.6961 46° Northeast 251 289 4,000  Level Houston Center
07:31AM 29.9939 -95.6561 67° East 241 277 4,000  Level Houston Center
07:31AM 29.9919 -95.6317 95° East 188 216 4,000  Level Houston Center
07:32AM 29.9933 -95.5958 87° East 198 228 4,000 -300 Level Houston Center
07:32AM 29.9928 -95.5714 91° East 178 205 3,700 -900 Descending Houston Center
07:33AM 29.9928 -95.5361 90° East 187 215 3,100 -900 Descending Houston Center
07:33AM 29.9922 -95.5161 92° East 172 198 2,800 -840 Descending Houston Center
07:34AM 29.9933 -95.4886 87° East 169 194 2,300 -720 Descending Houston Center
07:34AM 29.9925 -95.4725 93° East 126 145 2,100 -720 Descending Houston Center
07:35AM 29.9925 -95.4489 90° East 144 166 1,600 -840 Descending Houston Center